sensor_id;sensor_type;location;lat;lon;timestamp;temperature;humidity
41080;DHT22;26826;50.718;7.114;2023-06-05T00:09:18;17.40;76.10
41080;DHT22;26826;50.718;7.114;2023-06-05T00:19:18;17.30;78.20
41080;DHT22;26826;50.718;7.114;2023-06-05T00:29:19;17.20;79.00
41080;DHT22;26826;50.718;7.114;2023-06-05T00:39:20;16.70;81.40
41080;DHT22;26826;50.718;7.114;2023-06-05T00:49:20;16.60;81.90
41080;DHT22;26826;50.718;7.114;2023-06-05T00:59:21;16.50;82.40
41080;DHT22;26826;50.718;7.114;2023-06-05T01:09:23;16.30;83.30
41080;DHT22;26826;50.718;7.114;2023-06-05T01:19:24;16.00;84.30
41080;DHT22;26826;50.718;7.114;2023-06-05T01:39:50;15.80;86.30
41080;DHT22;26826;50.718;7.114;2023-06-05T01:49:51;15.50;88.00
41080;DHT22;26826;50.718;7.114;2023-06-05T01:59:52;15.40;91.40
41080;DHT22;26826;50.718;7.114;2023-06-05T02:10:14;15.20;93.70
41080;DHT22;26826;50.718;7.114;2023-06-05T02:20:15;15.00;94.50
41080;DHT22;26826;50.718;7.114;2023-06-05T02:30:18;15.00;96.80
41080;DHT22;26826;50.718;7.114;2023-06-05T02:40:19;14.80;97.40
41080;DHT22;26826;50.718;7.114;2023-06-05T02:50:22;14.60;99.80
41080;DHT22;26826;50.718;7.114;2023-06-05T03:00:23;14.40;99.90
41080;DHT22;26826;50.718;7.114;2023-06-05T03:10:27;14.30;99.90
41080;DHT22;26826;50.718;7.114;2023-06-05T03:20:28;14.00;99.90
41080;DHT22;26826;50.718;7.114;2023-06-05T03:30:29;13.80;99.90
41080;DHT22;26826;50.718;7.114;2023-06-05T03:40:30;13.70;99.90
41080;DHT22;26826;50.718;7.114;2023-06-05T03:50:31;13.50;99.90
41080;DHT22;26826;50.718;7.114;2023-06-05T04:00:34;13.50;99.90
41080;DHT22;26826;50.718;7.114;2023-06-05T04:10:36;13.40;99.90
41080;DHT22;26826;50.718;7.114;2023-06-05T04:20:36;13.30;99.90
41080;DHT22;26826;50.718;7.114;2023-06-05T04:31:04;13.30;99.90
41080;DHT22;26826;50.718;7.114;2023-06-05T04:41:07;13.50;99.90
41080;DHT22;26826;50.718;7.114;2023-06-05T04:51:13;13.50;99.90
41080;DHT22;26826;50.718;7.114;2023-06-05T05:12:35;13.60;99.90
41080;DHT22;26826;50.718;7.114;2023-06-05T05:22:37;13.80;99.90
41080;DHT22;26826;50.718;7.114;2023-06-05T05:32:38;14.00;99.90
41080;DHT22;26826;50.718;7.114;2023-06-05T05:42:39;14.00;99.90
41080;DHT22;26826;50.718;7.114;2023-06-05T05:52:39;14.20;99.90
41080;DHT22;26826;50.718;7.114;2023-06-05T06:02:40;14.50;99.90
41080;DHT22;26826;50.718;7.114;2023-06-05T06:12:41;15.40;99.90
41080;DHT22;26826;50.718;7.114;2023-06-05T06:22:42;16.30;99.90
41080;DHT22;26826;50.718;7.114;2023-06-05T06:32:43;17.10;99.60
41080;DHT22;26826;50.718;7.114;2023-06-05T06:42:43;17.70;97.50
41080;DHT22;26826;50.718;7.114;2023-06-05T06:52:44;18.40;96.20
41080;DHT22;26826;50.718;7.114;2023-06-05T07:02:44;18.70;94.60
41080;DHT22;26826;50.718;7.114;2023-06-05T07:12:45;19.60;94.60
41080;DHT22;26826;50.718;7.114;2023-06-05T07:22:45;20.20;93.30
41080;DHT22;26826;50.718;7.114;2023-06-05T07:32:46;20.70;92.60
41080;DHT22;26826;50.718;7.114;2023-06-05T07:42:46;21.50;91.00
41080;DHT22;26826;50.718;7.114;2023-06-05T07:52:47;22.20;90.10
41080;DHT22;26826;50.718;7.114;2023-06-05T08:02:47;22.30;88.20
41080;DHT22;26826;50.718;7.114;2023-06-05T08:23:50;23.50;82.40
41080;DHT22;26826;50.718;7.114;2023-06-05T08:33:54;24.30;78.70
41080;DHT22;26826;50.718;7.114;2023-06-05T08:43:55;24.60;80.10
41080;DHT22;26826;50.718;7.114;2023-06-05T08:54:03;25.40;78.30
41080;DHT22;26826;50.718;7.114;2023-06-05T09:04:13;25.90;77.70
41080;DHT22;26826;50.718;7.114;2023-06-05T09:14:13;26.70;76.50
41080;DHT22;26826;50.718;7.114;2023-06-05T09:24:18;27.10;74.70
41080;DHT22;26826;50.718;7.114;2023-06-05T09:34:24;27.30;74.10
41080;DHT22;26826;50.718;7.114;2023-06-05T09:44:28;28.50;71.00
41080;DHT22;26826;50.718;7.114;2023-06-05T09:54:34;28.40;71.00
41080;DHT22;26826;50.718;7.114;2023-06-05T10:04:48;28.50;69.50
41080;DHT22;26826;50.718;7.114;2023-06-05T10:14:54;29.10;69.70
41080;DHT22;26826;50.718;7.114;2023-06-05T10:25:04;29.80;68.50
41080;DHT22;26826;50.718;7.114;2023-06-05T10:45:39;31.00;65.20
41080;DHT22;26826;50.718;7.114;2023-06-05T10:55:43;31.60;64.60
41080;DHT22;26826;50.718;7.114;2023-06-05T11:06:12;32.40;63.80
41080;DHT22;26826;50.718;7.114;2023-06-05T11:16:25;32.50;63.20
41080;DHT22;26826;50.718;7.114;2023-06-05T11:26:46;31.90;60.80
41080;DHT22;26826;50.718;7.114;2023-06-05T11:36:47;32.70;59.90
41080;DHT22;26826;50.718;7.114;2023-06-05T11:46:50;33.20;57.10
41080;DHT22;26826;50.718;7.114;2023-06-05T11:57:02;31.50;57.20
41080;DHT22;26826;50.718;7.114;2023-06-05T12:07:08;32.30;56.80
41080;DHT22;26826;50.718;7.114;2023-06-05T12:17:09;33.20;56.30
41080;DHT22;26826;50.718;7.114;2023-06-05T12:27:10;32.60;57.00
41080;DHT22;26826;50.718;7.114;2023-06-05T12:37:28;34.00;55.20
41080;DHT22;26826;50.718;7.114;2023-06-05T12:47:29;33.40;56.40
41080;DHT22;26826;50.718;7.114;2023-06-05T12:57:31;33.60;56.50
41080;DHT22;26826;50.718;7.114;2023-06-05T13:07:32;33.40;54.80
41080;DHT22;26826;50.718;7.114;2023-06-05T13:17:33;33.90;54.40
41080;DHT22;26826;50.718;7.114;2023-06-05T13:27:36;33.80;54.00
41080;DHT22;26826;50.718;7.114;2023-06-05T13:37:38;33.00;55.30
41080;DHT22;26826;50.718;7.114;2023-06-05T13:47:38;33.40;54.00
41080;DHT22;26826;50.718;7.114;2023-06-05T13:57:39;33.60;53.20
41080;DHT22;26826;50.718;7.114;2023-06-05T14:07:39;33.00;53.20
41080;DHT22;26826;50.718;7.114;2023-06-05T14:17:40;33.20;53.30
41080;DHT22;26826;50.718;7.114;2023-06-05T14:27:40;32.60;53.60
41080;DHT22;26826;50.718;7.114;2023-06-05T14:37:41;33.40;53.70
41080;DHT22;26826;50.718;7.114;2023-06-05T14:47:42;33.00;52.00
41080;DHT22;26826;50.718;7.114;2023-06-05T14:57:44;33.20;52.20
41080;DHT22;26826;50.718;7.114;2023-06-05T15:07:45;33.20;51.50
41080;DHT22;26826;50.718;7.114;2023-06-05T15:17:45;33.20;52.20
41080;DHT22;26826;50.718;7.114;2023-06-05T15:27:46;32.60;52.50
41080;DHT22;26826;50.718;7.114;2023-06-05T15:37:48;32.90;49.20
41080;DHT22;26826;50.718;7.114;2023-06-05T15:47:49;31.90;49.70
41080;DHT22;26826;50.718;7.114;2023-06-05T15:57:49;32.60;49.60
41080;DHT22;26826;50.718;7.114;2023-06-05T16:07:50;32.70;49.20
41080;DHT22;26826;50.718;7.114;2023-06-05T16:17:51;32.70;49.50
41080;DHT22;26826;50.718;7.114;2023-06-05T16:27:51;32.20;52.30
41080;DHT22;26826;50.718;7.114;2023-06-05T16:37:52;30.60;53.40
41080;DHT22;26826;50.718;7.114;2023-06-05T16:47:52;30.20;54.10
41080;DHT22;26826;50.718;7.114;2023-06-05T16:57:53;29.90;55.30
41080;DHT22;26826;50.718;7.114;2023-06-05T17:07:53;29.90;56.30
41080;DHT22;26826;50.718;7.114;2023-06-05T17:17:54;29.70;56.20
41080;DHT22;26826;50.718;7.114;2023-06-05T17:27:54;29.70;57.80
41080;DHT22;26826;50.718;7.114;2023-06-05T17:37:55;29.00;58.90
41080;DHT22;26826;50.718;7.114;2023-06-05T17:47:56;28.40;59.30
41080;DHT22;26826;50.718;7.114;2023-06-05T17:57:56;27.80;59.90
41080;DHT22;26826;50.718;7.114;2023-06-05T18:07:57;27.60;59.80
41080;DHT22;26826;50.718;7.114;2023-06-05T18:17:57;27.20;60.00
41080;DHT22;26826;50.718;7.114;2023-06-05T18:27:58;26.80;60.20
41080;DHT22;26826;50.718;7.114;2023-06-05T18:37:59;26.40;61.00
41080;DHT22;26826;50.718;7.114;2023-06-05T18:47:59;26.00;61.30
41080;DHT22;26826;50.718;7.114;2023-06-05T18:58:00;25.70;62.40
41080;DHT22;26826;50.718;7.114;2023-06-05T19:08:01;25.30;63.10
41080;DHT22;26826;50.718;7.114;2023-06-05T19:18:01;24.90;63.90
41080;DHT22;26826;50.718;7.114;2023-06-05T19:28:02;24.60;64.70
41080;DHT22;26826;50.718;7.114;2023-06-05T19:38:03;24.30;65.60
41080;DHT22;26826;50.718;7.114;2023-06-05T19:48:04;23.90;65.90
41080;DHT22;26826;50.718;7.114;2023-06-05T19:58:05;23.60;67.20
41080;DHT22;26826;50.718;7.114;2023-06-05T20:08:05;23.30;68.00
41080;DHT22;26826;50.718;7.114;2023-06-05T20:18:06;22.90;68.80
41080;DHT22;26826;50.718;7.114;2023-06-05T20:28:07;22.60;69.20
41080;DHT22;26826;50.718;7.114;2023-06-05T20:38:09;22.30;70.00
41080;DHT22;26826;50.718;7.114;2023-06-05T20:48:10;21.90;70.90
41080;DHT22;26826;50.718;7.114;2023-06-05T20:58:11;21.60;71.20
41080;DHT22;26826;50.718;7.114;2023-06-05T21:08:12;21.30;72.00
41080;DHT22;26826;50.718;7.114;2023-06-05T21:18:12;21.00;73.60
41080;DHT22;26826;50.718;7.114;2023-06-05T21:28:13;20.90;74.20
41080;DHT22;26826;50.718;7.114;2023-06-05T21:38:13;20.60;74.40
41080;DHT22;26826;50.718;7.114;2023-06-05T21:48:13;20.40;74.80
41080;DHT22;26826;50.718;7.114;2023-06-05T21:58:14;20.20;75.40
41080;DHT22;26826;50.718;7.114;2023-06-05T22:08:15;20.00;76.70
41080;DHT22;26826;50.718;7.114;2023-06-05T22:18:16;19.90;77.20
41080;DHT22;26826;50.718;7.114;2023-06-05T22:28:26;19.70;78.20
41080;DHT22;26826;50.718;7.114;2023-06-05T22:38:26;19.40;79.20
41080;DHT22;26826;50.718;7.114;2023-06-05T22:48:28;19.40;79.80
41080;DHT22;26826;50.718;7.114;2023-06-05T22:58:32;19.10;80.80
41080;DHT22;26826;50.718;7.114;2023-06-05T23:08:32;18.90;81.70
41080;DHT22;26826;50.718;7.114;2023-06-05T23:18:34;18.70;82.20
41080;DHT22;26826;50.718;7.114;2023-06-05T23:28:34;18.50;83.00
41080;DHT22;26826;50.718;7.114;2023-06-05T23:38:34;18.40;83.60
41080;DHT22;26826;50.718;7.114;2023-06-05T23:48:35;18.30;84.90
41080;DHT22;26826;50.718;7.114;2023-06-05T23:58:36;18.20;85.20
